sensor_id;sensor_type;location;lat;lon;timestamp;temperature;humidity
11840;DHT22;5979;50.800;4.904;2024-03-17T00:02:17;8.80;99.90
11840;DHT22;5979;50.800;4.904;2024-03-17T00:04:44;8.80;99.90
11840;DHT22;5979;50.800;4.904;2024-03-17T00:07:11;8.80;99.90
11840;DHT22;5979;50.800;4.904;2024-03-17T00:09:37;8.80;99.90
11840;DHT22;5979;50.800;4.904;2024-03-17T00:12:03;8.80;99.90
11840;DHT22;5979;50.800;4.904;2024-03-17T00:14:28;8.70;99.90
11840;DHT22;5979;50.800;4.904;2024-03-17T00:16:54;8.70;99.90
11840;DHT22;5979;50.800;4.904;2024-03-17T00:19:20;8.70;99.90
11840;DHT22;5979;50.800;4.904;2024-03-17T00:21:49;8.60;99.90
11840;DHT22;5979;50.800;4.904;2024-03-17T00:24:16;8.60;99.90
11840;DHT22;5979;50.800;4.904;2024-03-17T00:26:42;8.60;99.90
11840;DHT22;5979;50.800;4.904;2024-03-17T00:29:08;8.50;99.90
11840;DHT22;5979;50.800;4.904;2024-03-17T00:31:34;8.50;99.90
11840;DHT22;5979;50.800;4.904;2024-03-17T00:33:59;8.50;99.90
11840;DHT22;5979;50.800;4.904;2024-03-17T00:36:25;8.50;99.90
11840;DHT22;5979;50.800;4.904;2024-03-17T00:38:51;8.50;99.90
11840;DHT22;5979;50.800;4.904;2024-03-17T00:41:19;8.50;99.90
11840;DHT22;5979;50.800;4.904;2024-03-17T00:43:46;8.50;99.90
11840;DHT22;5979;50.800;4.904;2024-03-17T00:46:12;8.50;99.90
11840;DHT22;5979;50.800;4.904;2024-03-17T00:48:38;8.50;99.90
11840;DHT22;5979;50.800;4.904;2024-03-17T00:51:03;8.40;99.90
11840;DHT22;5979;50.800;4.904;2024-03-17T00:53:29;8.40;99.90
11840;DHT22;5979;50.800;4.904;2024-03-17T00:55:55;8.40;99.90
11840;DHT22;5979;50.800;4.904;2024-03-17T00:58:25;8.30;99.90
11840;DHT22;5979;50.800;4.904;2024-03-17T01:00:51;8.30;99.90
11840;DHT22;5979;50.800;4.904;2024-03-17T01:03:17;8.30;99.90
11840;DHT22;5979;50.800;4.904;2024-03-17T01:05:43;8.30;99.90
11840;DHT22;5979;50.800;4.904;2024-03-17T01:08:13;8.30;99.90
11840;DHT22;5979;50.800;4.904;2024-03-17T01:10:40;8.30;99.90
11840;DHT22;5979;50.800;4.904;2024-03-17T01:13:06;8.30;99.90
11840;DHT22;5979;50.800;4.904;2024-03-17T01:15:33;8.30;99.90
11840;DHT22;5979;50.800;4.904;2024-03-17T01:17:58;8.30;99.90
11840;DHT22;5979;50.800;4.904;2024-03-17T01:20:25;8.30;99.90
11840;DHT22;5979;50.800;4.904;2024-03-17T01:22:51;8.30;99.90
11840;DHT22;5979;50.800;4.904;2024-03-17T01:25:16;8.40;99.90
11840;DHT22;5979;50.800;4.904;2024-03-17T01:27:42;8.40;99.90
11840;DHT22;5979;50.800;4.904;2024-03-17T01:30:10;8.50;99.90
11840;DHT22;5979;50.800;4.904;2024-03-17T01:32:35;8.50;99.90
11840;DHT22;5979;50.800;4.904;2024-03-17T01:35:01;8.60;99.90
11840;DHT22;5979;50.800;4.904;2024-03-17T01:37:27;8.60;99.90
11840;DHT22;5979;50.800;4.904;2024-03-17T01:39:57;8.60;99.90
11840;DHT22;5979;50.800;4.904;2024-03-17T01:42:23;8.50;99.90
11840;DHT22;5979;50.800;4.904;2024-03-17T01:44:49;8.50;99.90
11840;DHT22;5979;50.800;4.904;2024-03-17T01:47:18;8.50;99.90
11840;DHT22;5979;50.800;4.904;2024-03-17T01:49:48;8.50;99.90
11840;DHT22;5979;50.800;4.904;2024-03-17T01:52:15;8.50;99.90
11840;DHT22;5979;50.800;4.904;2024-03-17T01:54:42;8.50;99.90
11840;DHT22;5979;50.800;4.904;2024-03-17T01:57:08;8.50;99.90
11840;DHT22;5979;50.800;4.904;2024-03-17T01:59:34;8.50;99.90
11840;DHT22;5979;50.800;4.904;2024-03-17T02:02:00;8.60;99.90
11840;DHT22;5979;50.800;4.904;2024-03-17T02:04:26;8.60;99.90
11840;DHT22;5979;50.800;4.904;2024-03-17T02:06:52;8.60;99.90
11840;DHT22;5979;50.800;4.904;2024-03-17T02:09:18;8.60;99.90
11840;DHT22;5979;50.800;4.904;2024-03-17T02:11:44;8.60;99.90
11840;DHT22;5979;50.800;4.904;2024-03-17T02:14:10;8.60;99.90
11840;DHT22;5979;50.800;4.904;2024-03-17T02:16:36;8.50;99.90
11840;DHT22;5979;50.800;4.904;2024-03-17T02:19:02;8.50;99.90
11840;DHT22;5979;50.800;4.904;2024-03-17T02:21:27;8.50;99.90
11840;DHT22;5979;50.800;4.904;2024-03-17T02:23:56;8.50;99.90
11840;DHT22;5979;50.800;4.904;2024-03-17T02:26:26;8.50;99.90
11840;DHT22;5979;50.800;4.904;2024-03-17T02:28:52;8.50;99.90
11840;DHT22;5979;50.800;4.904;2024-03-17T02:31:18;8.50;99.90
11840;DHT22;5979;50.800;4.904;2024-03-17T02:33:44;8.50;99.90
11840;DHT22;5979;50.800;4.904;2024-03-17T02:36:10;8.50;99.90
11840;DHT22;5979;50.800;4.904;2024-03-17T02:38:38;8.60;99.90
11840;DHT22;5979;50.800;4.904;2024-03-17T02:41:22;8.60;99.90
11840;DHT22;5979;50.800;4.904;2024-03-17T02:43:48;8.60;99.90
11840;DHT22;5979;50.800;4.904;2024-03-17T02:46:15;8.70;99.90
11840;DHT22;5979;50.800;4.904;2024-03-17T02:48:42;8.70;99.90
11840;DHT22;5979;50.800;4.904;2024-03-17T02:51:13;8.70;99.90
11840;DHT22;5979;50.800;4.904;2024-03-17T02:53:41;8.70;99.90
11840;DHT22;5979;50.800;4.904;2024-03-17T02:56:07;8.70;99.90
11840;DHT22;5979;50.800;4.904;2024-03-17T02:58:35;8.70;99.90
11840;DHT22;5979;50.800;4.904;2024-03-17T03:01:01;8.80;99.90
11840;DHT22;5979;50.800;4.904;2024-03-17T03:03:27;8.70;99.90
11840;DHT22;5979;50.800;4.904;2024-03-17T03:05:52;8.60;99.90
11840;DHT22;5979;50.800;4.904;2024-03-17T03:08:18;8.50;99.90
11840;DHT22;5979;50.800;4.904;2024-03-17T03:10:47;8.40;99.90
11840;DHT22;5979;50.800;4.904;2024-03-17T03:13:12;8.40;99.90
11840;DHT22;5979;50.800;4.904;2024-03-17T03:15:38;8.30;99.90
11840;DHT22;5979;50.800;4.904;2024-03-17T03:18:04;8.20;99.90
11840;DHT22;5979;50.800;4.904;2024-03-17T03:20:30;8.20;99.90
11840;DHT22;5979;50.800;4.904;2024-03-17T03:22:55;8.20;99.90
11840;DHT22;5979;50.800;4.904;2024-03-17T03:25:21;8.20;99.90
11840;DHT22;5979;50.800;4.904;2024-03-17T03:27:47;8.10;99.90
11840;DHT22;5979;50.800;4.904;2024-03-17T03:30:13;8.10;99.90
11840;DHT22;5979;50.800;4.904;2024-03-17T03:32:41;8.20;99.90
11840;DHT22;5979;50.800;4.904;2024-03-17T03:35:08;8.20;99.90
11840;DHT22;5979;50.800;4.904;2024-03-17T03:37:33;8.20;99.90
11840;DHT22;5979;50.800;4.904;2024-03-17T03:39:59;8.20;99.90
11840;DHT22;5979;50.800;4.904;2024-03-17T03:42:24;8.20;99.90
11840;DHT22;5979;50.800;4.904;2024-03-17T03:44:50;8.20;99.90
11840;DHT22;5979;50.800;4.904;2024-03-17T03:47:16;8.20;99.90
11840;DHT22;5979;50.800;4.904;2024-03-17T03:49:41;8.20;99.90
11840;DHT22;5979;50.800;4.904;2024-03-17T03:52:07;8.20;99.90
11840;DHT22;5979;50.800;4.904;2024-03-17T03:54:33;8.10;99.90
11840;DHT22;5979;50.800;4.904;2024-03-17T03:56:59;8.20;99.90
11840;DHT22;5979;50.800;4.904;2024-03-17T03:59:25;8.30;99.90
11840;DHT22;5979;50.800;4.904;2024-03-17T04:01:50;8.30;99.90
11840;DHT22;5979;50.800;4.904;2024-03-17T04:04:17;8.30;99.90
11840;DHT22;5979;50.800;4.904;2024-03-17T04:06:43;8.40;99.90
11840;DHT22;5979;50.800;4.904;2024-03-17T04:09:08;8.40;99.90
11840;DHT22;5979;50.800;4.904;2024-03-17T04:11:34;8.40;99.90
11840;DHT22;5979;50.800;4.904;2024-03-17T04:14:01;8.40;99.90
11840;DHT22;5979;50.800;4.904;2024-03-17T04:16:28;8.40;99.90
11840;DHT22;5979;50.800;4.904;2024-03-17T04:18:53;8.30;99.90
11840;DHT22;5979;50.800;4.904;2024-03-17T04:21:19;8.30;99.90
11840;DHT22;5979;50.800;4.904;2024-03-17T04:23:46;8.20;99.90
11840;DHT22;5979;50.800;4.904;2024-03-17T04:26:12;8.20;99.90
11840;DHT22;5979;50.800;4.904;2024-03-17T04:28:38;8.10;99.90
11840;DHT22;5979;50.800;4.904;2024-03-17T04:31:07;8.10;99.90
11840;DHT22;5979;50.800;4.904;2024-03-17T04:33:34;8.00;99.90
11840;DHT22;5979;50.800;4.904;2024-03-17T04:36:00;8.00;99.90
11840;DHT22;5979;50.800;4.904;2024-03-17T04:38:27;7.90;99.90
11840;DHT22;5979;50.800;4.904;2024-03-17T04:40:53;7.90;99.90
11840;DHT22;5979;50.800;4.904;2024-03-17T04:43:30;7.90;99.90
11840;DHT22;5979;50.800;4.904;2024-03-17T04:46:04;7.80;99.90
11840;DHT22;5979;50.800;4.904;2024-03-17T04:48:32;7.90;99.90
11840;DHT22;5979;50.800;4.904;2024-03-17T04:50:58;7.80;99.90
11840;DHT22;5979;50.800;4.904;2024-03-17T04:53:25;7.80;99.90
11840;DHT22;5979;50.800;4.904;2024-03-17T04:56:04;7.80;99.90
11840;DHT22;5979;50.800;4.904;2024-03-17T04:58:34;7.80;99.90
11840;DHT22;5979;50.800;4.904;2024-03-17T05:01:07;7.90;99.90
11840;DHT22;5979;50.800;4.904;2024-03-17T05:03:34;7.90;99.90
11840;DHT22;5979;50.800;4.904;2024-03-17T05:06:04;8.00;99.90
11840;DHT22;5979;50.800;4.904;2024-03-17T05:08:31;8.00;99.90
11840;DHT22;5979;50.800;4.904;2024-03-17T05:11:01;8.00;99.90
11840;DHT22;5979;50.800;4.904;2024-03-17T05:13:30;8.00;99.90
11840;DHT22;5979;50.800;4.904;2024-03-17T05:15:56;8.00;99.90
11840;DHT22;5979;50.800;4.904;2024-03-17T05:18:23;8.10;99.90
11840;DHT22;5979;50.800;4.904;2024-03-17T05:21:03;8.00;99.90
11840;DHT22;5979;50.800;4.904;2024-03-17T05:23:30;8.10;99.90
11840;DHT22;5979;50.800;4.904;2024-03-17T05:25:57;8.10;99.90
11840;DHT22;5979;50.800;4.904;2024-03-17T05:28:28;8.10;99.90
11840;DHT22;5979;50.800;4.904;2024-03-17T05:30:54;8.10;99.90
11840;DHT22;5979;50.800;4.904;2024-03-17T05:33:20;8.00;99.90
11840;DHT22;5979;50.800;4.904;2024-03-17T05:35:51;8.00;99.90
11840;DHT22;5979;50.800;4.904;2024-03-17T05:38:26;8.00;99.90
11840;DHT22;5979;50.800;4.904;2024-03-17T05:41:03;8.00;99.90
11840;DHT22;5979;50.800;4.904;2024-03-17T05:43:34;8.00;99.90
11840;DHT22;5979;50.800;4.904;2024-03-17T05:46:02;7.90;99.90
11840;DHT22;5979;50.800;4.904;2024-03-17T05:48:28;8.00;99.90
11840;DHT22;5979;50.800;4.904;2024-03-17T05:50:54;8.00;99.90
11840;DHT22;5979;50.800;4.904;2024-03-17T05:53:21;8.00;99.90
11840;DHT22;5979;50.800;4.904;2024-03-17T05:55:47;8.00;99.90
11840;DHT22;5979;50.800;4.904;2024-03-17T05:58:12;8.10;99.90
11840;DHT22;5979;50.800;4.904;2024-03-17T06:00:39;8.10;99.90
11840;DHT22;5979;50.800;4.904;2024-03-17T06:03:05;8.20;99.90
11840;DHT22;5979;50.800;4.904;2024-03-17T06:05:38;8.20;99.90
11840;DHT22;5979;50.800;4.904;2024-03-17T06:08:06;8.30;99.90
11840;DHT22;5979;50.800;4.904;2024-03-17T06:10:35;8.40;99.90
11840;DHT22;5979;50.800;4.904;2024-03-17T06:13:00;8.50;99.90
11840;DHT22;5979;50.800;4.904;2024-03-17T06:15:26;8.60;99.90
11840;DHT22;5979;50.800;4.904;2024-03-17T06:17:55;8.70;99.90
11840;DHT22;5979;50.800;4.904;2024-03-17T06:20:25;8.80;99.90
11840;DHT22;5979;50.800;4.904;2024-03-17T06:22:54;8.90;99.90
11840;DHT22;5979;50.800;4.904;2024-03-17T06:25:20;9.00;99.90
11840;DHT22;5979;50.800;4.904;2024-03-17T06:27:49;9.10;99.90
11840;DHT22;5979;50.800;4.904;2024-03-17T06:30:15;9.10;99.90
11840;DHT22;5979;50.800;4.904;2024-03-17T06:32:41;9.10;99.90
11840;DHT22;5979;50.800;4.904;2024-03-17T06:35:08;9.00;99.90
11840;DHT22;5979;50.800;4.904;2024-03-17T06:37:34;9.00;99.90
11840;DHT22;5979;50.800;4.904;2024-03-17T06:40:01;9.10;99.90
11840;DHT22;5979;50.800;4.904;2024-03-17T06:42:29;9.20;99.90
11840;DHT22;5979;50.800;4.904;2024-03-17T06:44:55;9.20;99.90
11840;DHT22;5979;50.800;4.904;2024-03-17T06:47:20;9.30;99.90
11840;DHT22;5979;50.800;4.904;2024-03-17T06:49:46;9.40;99.90
11840;DHT22;5979;50.800;4.904;2024-03-17T06:52:12;9.40;99.90
11840;DHT22;5979;50.800;4.904;2024-03-17T06:54:37;9.50;99.90
11840;DHT22;5979;50.800;4.904;2024-03-17T06:57:03;9.60;99.90
11840;DHT22;5979;50.800;4.904;2024-03-17T06:59:33;9.70;99.90
11840;DHT22;5979;50.800;4.904;2024-03-17T07:01:58;9.70;99.90
11840;DHT22;5979;50.800;4.904;2024-03-17T07:04:24;9.80;99.90
11840;DHT22;5979;50.800;4.904;2024-03-17T07:06:50;9.90;99.90
11840;DHT22;5979;50.800;4.904;2024-03-17T07:09:16;10.00;99.90
11840;DHT22;5979;50.800;4.904;2024-03-17T07:11:43;10.00;99.90
11840;DHT22;5979;50.800;4.904;2024-03-17T07:14:09;10.10;99.90
11840;DHT22;5979;50.800;4.904;2024-03-17T07:16:35;10.10;99.90
11840;DHT22;5979;50.800;4.904;2024-03-17T07:19:02;10.20;99.90
11840;DHT22;5979;50.800;4.904;2024-03-17T07:21:28;10.20;99.90
11840;DHT22;5979;50.800;4.904;2024-03-17T07:23:53;10.30;99.90
11840;DHT22;5979;50.800;4.904;2024-03-17T07:26:19;10.40;99.90
11840;DHT22;5979;50.800;4.904;2024-03-17T07:28:44;10.50;99.90
11840;DHT22;5979;50.800;4.904;2024-03-17T07:31:10;10.60;99.90
11840;DHT22;5979;50.800;4.904;2024-03-17T07:33:37;10.70;99.90
11840;DHT22;5979;50.800;4.904;2024-03-17T07:36:03;10.80;99.90
11840;DHT22;5979;50.800;4.904;2024-03-17T07:38:30;11.00;99.90
11840;DHT22;5979;50.800;4.904;2024-03-17T07:40:57;11.10;99.90
11840;DHT22;5979;50.800;4.904;2024-03-17T07:43:24;11.20;99.90
11840;DHT22;5979;50.800;4.904;2024-03-17T07:46:17;11.30;99.90
11840;DHT22;5979;50.800;4.904;2024-03-17T07:48:44;11.30;99.90
11840;DHT22;5979;50.800;4.904;2024-03-17T07:51:11;11.30;99.90
11840;DHT22;5979;50.800;4.904;2024-03-17T07:53:38;11.40;99.90
11840;DHT22;5979;50.800;4.904;2024-03-17T07:56:08;11.40;99.90
11840;DHT22;5979;50.800;4.904;2024-03-17T07:58:36;11.40;99.90
11840;DHT22;5979;50.800;4.904;2024-03-17T08:01:22;11.30;99.90
11840;DHT22;5979;50.800;4.904;2024-03-17T08:03:48;11.30;99.90
11840;DHT22;5979;50.800;4.904;2024-03-17T08:06:21;11.20;99.90
11840;DHT22;5979;50.800;4.904;2024-03-17T08:08:47;11.10;99.90
11840;DHT22;5979;50.800;4.904;2024-03-17T08:11:12;11.00;99.90
11840;DHT22;5979;50.800;4.904;2024-03-17T08:13:38;11.00;99.90
11840;DHT22;5979;50.800;4.904;2024-03-17T08:16:06;11.00;99.90
11840;DHT22;5979;50.800;4.904;2024-03-17T08:18:32;11.00;99.90
11840;DHT22;5979;50.800;4.904;2024-03-17T08:21:03;11.10;99.90
11840;DHT22;5979;50.800;4.904;2024-03-17T08:23:33;11.30;99.90
11840;DHT22;5979;50.800;4.904;2024-03-17T08:26:01;11.40;99.90
11840;DHT22;5979;50.800;4.904;2024-03-17T08:28:28;11.60;99.90
11840;DHT22;5979;50.800;4.904;2024-03-17T08:30:54;11.70;99.90
11840;DHT22;5979;50.800;4.904;2024-03-17T08:33:21;11.90;99.90
11840;DHT22;5979;50.800;4.904;2024-03-17T08:36:02;12.00;99.90
11840;DHT22;5979;50.800;4.904;2024-03-17T08:38:29;12.20;99.90
11840;DHT22;5979;50.800;4.904;2024-03-17T08:40:55;12.40;99.90
11840;DHT22;5979;50.800;4.904;2024-03-17T08:43:22;12.50;99.90
11840;DHT22;5979;50.800;4.904;2024-03-17T08:46:03;12.70;99.90
11840;DHT22;5979;50.800;4.904;2024-03-17T08:48:31;13.00;99.90
11840;DHT22;5979;50.800;4.904;2024-03-17T08:50:58;13.10;99.90
11840;DHT22;5979;50.800;4.904;2024-03-17T08:53:24;13.30;99.90
11840;DHT22;5979;50.800;4.904;2024-03-17T08:55:50;13.30;99.90
11840;DHT22;5979;50.800;4.904;2024-03-17T08:58:16;13.30;99.90
11840;DHT22;5979;50.800;4.904;2024-03-17T09:00:43;13.20;99.90
11840;DHT22;5979;50.800;4.904;2024-03-17T09:03:09;13.20;99.90
11840;DHT22;5979;50.800;4.904;2024-03-17T09:05:36;13.20;99.90
11840;DHT22;5979;50.800;4.904;2024-03-17T09:08:02;13.20;99.90
11840;DHT22;5979;50.800;4.904;2024-03-17T09:10:28;13.20;99.90
11840;DHT22;5979;50.800;4.904;2024-03-17T09:12:54;13.20;99.90
11840;DHT22;5979;50.800;4.904;2024-03-17T09:15:19;13.20;99.90
11840;DHT22;5979;50.800;4.904;2024-03-17T09:17:46;13.30;99.90
11840;DHT22;5979;50.800;4.904;2024-03-17T09:20:12;13.40;99.90
11840;DHT22;5979;50.800;4.904;2024-03-17T09:22:43;13.50;99.90
11840;DHT22;5979;50.800;4.904;2024-03-17T09:25:09;13.50;99.90
11840;DHT22;5979;50.800;4.904;2024-03-17T09:27:35;13.60;99.90
11840;DHT22;5979;50.800;4.904;2024-03-17T09:30:04;13.60;99.90
11840;DHT22;5979;50.800;4.904;2024-03-17T09:32:36;13.60;99.90
11840;DHT22;5979;50.800;4.904;2024-03-17T09:35:03;13.50;99.90
11840;DHT22;5979;50.800;4.904;2024-03-17T09:37:29;13.40;99.90
11840;DHT22;5979;50.800;4.904;2024-03-17T09:39:59;13.30;99.90
11840;DHT22;5979;50.800;4.904;2024-03-17T09:42:26;13.20;99.90
11840;DHT22;5979;50.800;4.904;2024-03-17T09:44:53;13.10;99.90
11840;DHT22;5979;50.800;4.904;2024-03-17T09:47:23;13.10;99.90
11840;DHT22;5979;50.800;4.904;2024-03-17T09:49:50;13.00;99.90
11840;DHT22;5979;50.800;4.904;2024-03-17T09:52:25;13.00;99.90
11840;DHT22;5979;50.800;4.904;2024-03-17T09:55:24;13.00;99.90
11840;DHT22;5979;50.800;4.904;2024-03-17T09:57:49;13.00;99.90
11840;DHT22;5979;50.800;4.904;2024-03-17T10:00:15;13.10;99.90
11840;DHT22;5979;50.800;4.904;2024-03-17T10:02:50;13.30;99.90
11840;DHT22;5979;50.800;4.904;2024-03-17T10:05:20;13.40;99.90
11840;DHT22;5979;50.800;4.904;2024-03-17T10:07:47;13.40;99.90
11840;DHT22;5979;50.800;4.904;2024-03-17T10:10:13;13.40;99.90
11840;DHT22;5979;50.800;4.904;2024-03-17T10:12:39;13.40;99.90
11840;DHT22;5979;50.800;4.904;2024-03-17T10:15:05;13.30;99.90
11840;DHT22;5979;50.800;4.904;2024-03-17T10:17:32;13.30;99.90
11840;DHT22;5979;50.800;4.904;2024-03-17T10:20:14;13.30;99.90
11840;DHT22;5979;50.800;4.904;2024-03-17T10:23:02;13.20;99.90
11840;DHT22;5979;50.800;4.904;2024-03-17T10:25:30;13.20;99.90
11840;DHT22;5979;50.800;4.904;2024-03-17T10:27:56;13.30;99.90
11840;DHT22;5979;50.800;4.904;2024-03-17T10:30:23;13.30;99.90
11840;DHT22;5979;50.800;4.904;2024-03-17T10:32:58;13.30;99.90
11840;DHT22;5979;50.800;4.904;2024-03-17T10:38:00;13.50;99.90
11840;DHT22;5979;50.800;4.904;2024-03-17T10:40:28;13.60;99.90
11840;DHT22;5979;50.800;4.904;2024-03-17T10:42:55;13.60;99.90
11840;DHT22;5979;50.800;4.904;2024-03-17T10:45:21;13.70;99.90
11840;DHT22;5979;50.800;4.904;2024-03-17T10:47:49;13.80;99.90
11840;DHT22;5979;50.800;4.904;2024-03-17T10:50:20;13.80;99.90
11840;DHT22;5979;50.800;4.904;2024-03-17T10:52:48;13.90;99.90
11840;DHT22;5979;50.800;4.904;2024-03-17T10:55:25;13.90;99.90
11840;DHT22;5979;50.800;4.904;2024-03-17T10:57:52;13.90;99.90
11840;DHT22;5979;50.800;4.904;2024-03-17T11:00:20;14.00;99.90
11840;DHT22;5979;50.800;4.904;2024-03-17T11:02:51;14.00;99.90
11840;DHT22;5979;50.800;4.904;2024-03-17T11:05:27;14.00;99.90
11840;DHT22;5979;50.800;4.904;2024-03-17T11:07:59;14.10;99.90
11840;DHT22;5979;50.800;4.904;2024-03-17T11:10:35;14.20;99.90
11840;DHT22;5979;50.800;4.904;2024-03-17T11:13:03;14.20;99.90
11840;DHT22;5979;50.800;4.904;2024-03-17T11:20:39;14.20;99.90
11840;DHT22;5979;50.800;4.904;2024-03-17T11:23:06;14.20;99.90
11840;DHT22;5979;50.800;4.904;2024-03-17T11:28:02;14.30;99.90
11840;DHT22;5979;50.800;4.904;2024-03-17T11:30:48;14.40;99.90
11840;DHT22;5979;50.800;4.904;2024-03-17T11:41:32;14.60;99.90
11840;DHT22;5979;50.800;4.904;2024-03-17T11:46:55;14.70;99.90
11840;DHT22;5979;50.800;4.904;2024-03-17T11:51:48;14.80;99.90
11840;DHT22;5979;50.800;4.904;2024-03-17T11:54:15;14.90;99.90
11840;DHT22;5979;50.800;4.904;2024-03-17T11:56:54;15.00;99.90
11840;DHT22;5979;50.800;4.904;2024-03-17T11:59:21;15.10;99.90
11840;DHT22;5979;50.800;4.904;2024-03-17T12:01:51;15.10;99.90
11840;DHT22;5979;50.800;4.904;2024-03-17T12:04:22;15.30;99.90
11840;DHT22;5979;50.800;4.904;2024-03-17T12:06:49;15.40;99.90
11840;DHT22;5979;50.800;4.904;2024-03-17T12:09:21;15.60;99.90
11840;DHT22;5979;50.800;4.904;2024-03-17T12:12:10;15.70;99.90
11840;DHT22;5979;50.800;4.904;2024-03-17T12:14:37;15.80;99.90
11840;DHT22;5979;50.800;4.904;2024-03-17T12:17:06;15.90;99.90
11840;DHT22;5979;50.800;4.904;2024-03-17T12:19:33;16.00;99.90
11840;DHT22;5979;50.800;4.904;2024-03-17T12:21:59;16.10;99.90
11840;DHT22;5979;50.800;4.904;2024-03-17T12:24:28;16.10;99.90
11840;DHT22;5979;50.800;4.904;2024-03-17T12:26:55;16.10;99.90
11840;DHT22;5979;50.800;4.904;2024-03-17T12:29:34;16.20;99.90
11840;DHT22;5979;50.800;4.904;2024-03-17T12:32:25;16.30;99.90
11840;DHT22;5979;50.800;4.904;2024-03-17T12:34:55;16.40;99.90
11840;DHT22;5979;50.800;4.904;2024-03-17T12:37:26;16.40;99.90
11840;DHT22;5979;50.800;4.904;2024-03-17T12:39:59;16.40;99.90
11840;DHT22;5979;50.800;4.904;2024-03-17T12:42:29;16.40;99.90
11840;DHT22;5979;50.800;4.904;2024-03-17T12:44:59;16.30;99.90
11840;DHT22;5979;50.800;4.904;2024-03-17T12:47:30;16.20;99.90
11840;DHT22;5979;50.800;4.904;2024-03-17T12:49:58;16.00;99.90
11840;DHT22;5979;50.800;4.904;2024-03-17T12:52:33;16.00;99.90
11840;DHT22;5979;50.800;4.904;2024-03-17T12:55:15;15.90;99.90
11840;DHT22;5979;50.800;4.904;2024-03-17T13:00:46;15.90;99.90
11840;DHT22;5979;50.800;4.904;2024-03-17T13:03:24;15.80;99.90
11840;DHT22;5979;50.800;4.904;2024-03-17T13:05:50;15.90;99.90
11840;DHT22;5979;50.800;4.904;2024-03-17T13:08:16;15.90;99.90
11840;DHT22;5979;50.800;4.904;2024-03-17T13:10:41;15.90;99.90
11840;DHT22;5979;50.800;4.904;2024-03-17T13:13:12;15.90;99.90
11840;DHT22;5979;50.800;4.904;2024-03-17T13:15:41;15.90;99.90
11840;DHT22;5979;50.800;4.904;2024-03-17T13:18:07;15.90;99.90
11840;DHT22;5979;50.800;4.904;2024-03-17T13:20:33;15.90;99.90
11840;DHT22;5979;50.800;4.904;2024-03-17T13:23:00;16.00;99.90
11840;DHT22;5979;50.800;4.904;2024-03-17T13:25:27;16.00;99.90
11840;DHT22;5979;50.800;4.904;2024-03-17T13:27:55;16.00;99.90
11840;DHT22;5979;50.800;4.904;2024-03-17T13:30:24;16.00;99.90
11840;DHT22;5979;50.800;4.904;2024-03-17T13:32:52;16.00;99.90
11840;DHT22;5979;50.800;4.904;2024-03-17T13:35:25;16.00;99.90
11840;DHT22;5979;50.800;4.904;2024-03-17T13:37:51;16.10;99.90
11840;DHT22;5979;50.800;4.904;2024-03-17T13:40:18;16.10;99.90
11840;DHT22;5979;50.800;4.904;2024-03-17T13:42:52;16.20;99.90
11840;DHT22;5979;50.800;4.904;2024-03-17T13:45:19;16.30;99.90
11840;DHT22;5979;50.800;4.904;2024-03-17T13:47:57;16.40;99.90
11840;DHT22;5979;50.800;4.904;2024-03-17T13:50:23;16.30;99.90
11840;DHT22;5979;50.800;4.904;2024-03-17T13:52:49;16.20;99.90
11840;DHT22;5979;50.800;4.904;2024-03-17T13:57:45;16.10;99.90
11840;DHT22;5979;50.800;4.904;2024-03-17T14:00:12;16.00;99.90
11840;DHT22;5979;50.800;4.904;2024-03-17T14:02:45;15.90;99.90
11840;DHT22;5979;50.800;4.904;2024-03-17T14:05:16;15.90;99.90
11840;DHT22;5979;50.800;4.904;2024-03-17T14:07:42;15.90;99.90
11840;DHT22;5979;50.800;4.904;2024-03-17T14:10:10;15.80;99.90
11840;DHT22;5979;50.800;4.904;2024-03-17T14:12:37;15.80;99.90
11840;DHT22;5979;50.800;4.904;2024-03-17T14:15:07;15.70;99.90
11840;DHT22;5979;50.800;4.904;2024-03-17T14:17:38;15.60;99.90
11840;DHT22;5979;50.800;4.904;2024-03-17T14:20:05;15.60;99.90
11840;DHT22;5979;50.800;4.904;2024-03-17T14:22:42;15.60;99.90
11840;DHT22;5979;50.800;4.904;2024-03-17T14:25:09;15.50;99.90
11840;DHT22;5979;50.800;4.904;2024-03-17T14:27:36;15.40;99.90
11840;DHT22;5979;50.800;4.904;2024-03-17T14:30:02;15.40;99.90
11840;DHT22;5979;50.800;4.904;2024-03-17T14:32:29;15.40;99.90
11840;DHT22;5979;50.800;4.904;2024-03-17T14:34:55;15.40;99.90
11840;DHT22;5979;50.800;4.904;2024-03-17T14:37:21;15.40;99.90
11840;DHT22;5979;50.800;4.904;2024-03-17T14:39:48;15.40;99.90
11840;DHT22;5979;50.800;4.904;2024-03-17T14:42:15;15.40;99.90
11840;DHT22;5979;50.800;4.904;2024-03-17T14:44:40;15.30;99.90
11840;DHT22;5979;50.800;4.904;2024-03-17T14:47:06;15.30;99.90
11840;DHT22;5979;50.800;4.904;2024-03-17T14:49:32;15.30;99.90
11840;DHT22;5979;50.800;4.904;2024-03-17T14:51:58;15.30;99.90
11840;DHT22;5979;50.800;4.904;2024-03-17T14:54:24;15.30;99.90
11840;DHT22;5979;50.800;4.904;2024-03-17T14:56:51;15.30;99.90
11840;DHT22;5979;50.800;4.904;2024-03-17T14:59:17;15.30;99.90
11840;DHT22;5979;50.800;4.904;2024-03-17T15:01:45;15.30;99.90
11840;DHT22;5979;50.800;4.904;2024-03-17T15:04:11;15.30;99.90
11840;DHT22;5979;50.800;4.904;2024-03-17T15:06:37;15.30;99.90
11840;DHT22;5979;50.800;4.904;2024-03-17T15:09:02;15.30;99.90
11840;DHT22;5979;50.800;4.904;2024-03-17T15:11:30;15.30;99.90
11840;DHT22;5979;50.800;4.904;2024-03-17T15:13:55;15.30;99.90
11840;DHT22;5979;50.800;4.904;2024-03-17T15:16:21;15.30;99.90
11840;DHT22;5979;50.800;4.904;2024-03-17T15:18:48;15.30;99.90
11840;DHT22;5979;50.800;4.904;2024-03-17T15:21:14;15.20;99.90
11840;DHT22;5979;50.800;4.904;2024-03-17T15:23:40;15.10;99.90
11840;DHT22;5979;50.800;4.904;2024-03-17T15:26:06;15.10;99.90
11840;DHT22;5979;50.800;4.904;2024-03-17T15:28:36;15.10;99.90
11840;DHT22;5979;50.800;4.904;2024-03-17T15:31:11;15.10;99.90
11840;DHT22;5979;50.800;4.904;2024-03-17T15:33:38;15.10;99.90
11840;DHT22;5979;50.800;4.904;2024-03-17T15:36:07;15.10;99.90
11840;DHT22;5979;50.800;4.904;2024-03-17T15:38:37;15.20;99.90
11840;DHT22;5979;50.800;4.904;2024-03-17T15:41:07;15.10;99.90
11840;DHT22;5979;50.800;4.904;2024-03-17T15:43:40;15.20;99.90
11840;DHT22;5979;50.800;4.904;2024-03-17T15:46:18;15.20;99.90
11840;DHT22;5979;50.800;4.904;2024-03-17T15:48:44;15.20;99.90
11840;DHT22;5979;50.800;4.904;2024-03-17T15:51:10;15.30;99.90
11840;DHT22;5979;50.800;4.904;2024-03-17T15:53:36;15.30;99.90
11840;DHT22;5979;50.800;4.904;2024-03-17T15:56:03;15.30;99.90
11840;DHT22;5979;50.800;4.904;2024-03-17T15:58:30;15.30;99.90
11840;DHT22;5979;50.800;4.904;2024-03-17T16:00:57;15.30;99.90
11840;DHT22;5979;50.800;4.904;2024-03-17T16:03:33;15.30;99.90
11840;DHT22;5979;50.800;4.904;2024-03-17T16:06:09;15.30;99.90
11840;DHT22;5979;50.800;4.904;2024-03-17T16:08:54;15.30;99.90
11840;DHT22;5979;50.800;4.904;2024-03-17T16:11:25;15.30;99.90
11840;DHT22;5979;50.800;4.904;2024-03-17T16:13:57;15.30;99.90
11840;DHT22;5979;50.800;4.904;2024-03-17T16:16:23;15.20;99.90
11840;DHT22;5979;50.800;4.904;2024-03-17T16:18:53;15.10;99.90
11840;DHT22;5979;50.800;4.904;2024-03-17T16:21:21;15.00;99.90
11840;DHT22;5979;50.800;4.904;2024-03-17T16:23:51;15.00;99.90
11840;DHT22;5979;50.800;4.904;2024-03-17T16:26:19;14.90;99.90
11840;DHT22;5979;50.800;4.904;2024-03-17T16:28:46;14.90;99.90